Portada
METAR-TAF:

METAR-TAF

Aeroports :

Loei, Tailàndia

latitud: 17-27N, longitud: 101-44E, altitud: 253 m

Observació

L'informe es va fer fa 43 minuts, a les 07:00 UTC
Vent 5 kt del Sud-Est, variant entre Est/Nord-Est i Sud-Oest
Temperatura 32°C
Humitat 46%
Pressió 1014 hPa
Visibilitat 10 km o més
Núvols disperses a una alçada de 3500 ft

METAR: VTUL 190700Z 13005KT 070V220 9999 SCT035 32/19 Q1014 NOSIG

Hora: 14:43 (07:43 UTC)

Pronòstic

L'informe es va fer fa 2 hores i 43 minuts, a les 05:00 UTC
Pronòstic vàlid del 19 a les 06 UTC al 20 a les 06 UTC
Vent 6 kt del Nord-Est
Visibilitat 10 km o més
Núvols disperses a una alçada de 2500 ft

TAF: VTUL 190500Z 1906/2006 04006KT 9999 SCT025

Observacions i pronòstics meteorològics de més de 4000 aeroports (METAR i TAF).

Les estacions disponibles són els punts grocs i vermells al mapa.

Posi el ratolí al punt desitjat per veure el nom de l'estació.

Feu clic per veure les observacions i els pronòstics meteorològics.

Per canviar el mapa: feu clic els botons verds amb una creu de color negre per apropar; al botó verd amb un guió per allunyar la imatge; o en les fletxes verdes per a mapes adjacents.


METAR-TAF: